Time;durP1;ratioP1;P1;durP2;ratioP2;P2;SDS_P1;SDS_P2;PMS_P1;PMS_P2;Temp;Humidity;BMP_temperature;BMP_pressure;BME280_temperature;BME280_humidity;BME280_pressure;Samples;Min_cycle;Max_cycle;Signal;HPM_P1;HPM_P2
2021/10/11 00:18:44;;;;;;;7.70;5.22;;;;;;;;;;4563449;28;20324;-61
2021/10/11 00:21:13;;;;;;;8.65;5.35;;;;;;;;;;4202441;34;20465;-60
2021/10/11 00:23:39;;;;;;;7.43;5.03;;;;;;;;;;4215300;33;20102;-61
2021/10/11 00:26:05;;;;;;;7.37;4.70;;;;;;;;;;4204368;34;20216;-61
2021/10/11 00:28:31;;;;;;;6.35;5.32;;;;;;;;;;4210802;34;20101;-61
2021/10/11 00:30:57;;;;;;;8.40;4.90;;;;;;;;;;4218200;34;20149;-61
2021/10/11 00:33:22;;;;;;;6.12;5.00;;;;;;;;;;4217979;33;20161;-62
2021/10/11 00:35:48;;;;;;;8.63;5.07;;;;;;;;;;4218044;34;20204;-61
2021/10/11 00:38:14;;;;;;;6.32;4.82;;;;;;;;;;4204966;34;20102;-61
2021/10/11 00:40:40;;;;;;;9.95;5.15;;;;;;;;;;4204073;34;20208;-61
2021/10/11 00:43:06;;;;;;;9.43;5.85;;;;;;;;;;4204288;34;20106;-61
2021/10/11 00:45:32;;;;;;;14.02;5.20;;;;;;;;;;4204063;34;20772;-62
2021/10/11 00:47:58;;;;;;;8.45;5.20;;;;;;;;;;4204229;34;20526;-61
2021/10/11 00:50:23;;;;;;;6.85;5.40;;;;;;;;;;4203954;34;20148;-61
2021/10/11 00:52:49;;;;;;;7.65;5.40;;;;;;;;;;4204107;34;20220;-61
2021/10/11 00:55:15;;;;;;;8.90;5.82;;;;;;;;;;4216674;34;20104;-61
2021/10/11 00:57:41;;;;;;;9.68;4.90;;;;;;;;;;4204995;33;20612;-61
2021/10/11 01:00:07;;;;;;;18.20;5.37;;;;;;;;;;4217836;34;20106;-62
2021/10/11 01:02:33;;;;;;;8.45;5.50;;;;;;;;;;4217804;33;20544;-61
2021/10/11 01:04:59;;;;;;;12.55;6.40;;;;;;;;;;4217835;34;20108;-61
2021/10/11 01:07:25;;;;;;;7.82;5.57;;;;;;;;;;4217669;33;20191;-62
2021/10/11 01:09:51;;;;;;;9.52;5.43;;;;;;;;;;4217789;34;20465;-61
2021/10/11 01:12:17;;;;;;;8.20;5.03;;;;;;;;;;4204798;34;20144;-61
2021/10/11 01:14:43;;;;;;;6.28;4.78;;;;;;;;;;4217687;33;20104;-61
2021/10/11 01:17:09;;;;;;;6.80;4.78;;;;;;;;;;4217252;34;20117;-61
2021/10/11 01:19:38;;;;;;;9.38;5.20;;;;;;;;;;4217398;34;20128;-62
2021/10/11 01:22:04;;;;;;;7.87;5.20;;;;;;;;;;4205340;34;20118;-61
2021/10/11 01:24:29;;;;;;;10.48;5.30;;;;;;;;;;4205855;34;20098;-61
2021/10/11 01:26:55;;;;;;;9.38;5.37;;;;;;;;;;4205827;34;20459;-61
2021/10/11 01:29:21;;;;;;;7.37;4.87;;;;;;;;;;4206051;34;20110;-61
2021/10/11 01:31:49;;;;;;;7.40;5.15;;;;;;;;;;4205806;34;20090;-61
2021/10/11 01:34:15;;;;;;;13.00;5.07;;;;;;;;;;4206090;34;20220;-61
2021/10/11 01:36:41;;;;;;;6.45;4.87;;;;;;;;;;4205823;34;20526;-61
2021/10/11 01:39:09;;;;;;;10.48;5.15;;;;;;;;;;4205788;34;20133;-62
2021/10/11 01:41:36;;;;;;;8.85;5.18;;;;;;;;;;4205647;34;20212;-61
2021/10/11 01:44:02;;;;;;;8.02;4.97;;;;;;;;;;4205985;34;20102;-61
2021/10/11 01:46:28;;;;;;;8.63;5.05;;;;;;;;;;4205717;34;20528;-62
2021/10/11 01:48:54;;;;;;;7.10;5.25;;;;;;;;;;4205903;34;20115;-61
2021/10/11 01:51:22;;;;;;;8.00;5.15;;;;;;;;;;4215631;34;20128;-61
2021/10/11 01:53:49;;;;;;;12.07;6.10;;;;;;;;;;4205762;34;20554;-61
2021/10/11 01:56:15;;;;;;;9.85;5.45;;;;;;;;;;4219227;34;20090;-61
2021/10/11 01:58:41;;;;;;;10.25;5.72;;;;;;;;;;4219615;33;20137;-60
2021/10/11 02:01:07;;;;;;;9.27;5.93;;;;;;;;;;4219614;34;20131;-60
2021/10/11 02:03:32;;;;;;;8.82;5.80;;;;;;;;;;4219354;33;20132;-60
2021/10/11 02:05:58;;;;;;;9.50;4.65;;;;;;;;;;4219630;34;20152;-61
2021/10/11 02:08:24;;;;;;;8.45;5.00;;;;;;;;;;4219751;33;20113;-61
2021/10/11 02:10:50;;;;;;;9.45;5.05;;;;;;;;;;4206455;34;20599;-61
2021/10/11 02:13:16;;;;;;;8.05;5.28;;;;;;;;;;4219337;33;20105;-61
2021/10/11 02:15:42;;;;;;;8.52;4.65;;;;;;;;;;4219359;34;20121;-64
2021/10/11 02:18:08;;;;;;;12.37;5.32;;;;;;;;;;4206385;34;20189;-61
2021/10/11 02:20:35;;;;;;;15.50;6.45;;;;;;;;;;4229528;33;20124;-61
2021/10/11 02:23:02;;;;;;;7.35;5.28;;;;;;;;;;4207108;34;20145;-61
2021/10/11 02:25:28;;;;;;;7.90;5.53;;;;;;;;;;4205607;34;20105;-61
2021/10/11 02:27:54;;;;;;;8.80;5.30;;;;;;;;;;4205497;34;20461;-59
2021/10/11 02:30:20;;;;;;;8.48;5.70;;;;;;;;;;4205370;34;20129;-59
2021/10/11 02:32:46;;;;;;;7.47;5.60;;;;;;;;;;4205128;34;20117;-61
2021/10/11 02:35:13;;;;;;;9.48;5.10;;;;;;;;;;4205277;34;20106;-62
2021/10/11 02:37:38;;;;;;;12.55;5.40;;;;;;;;;;4205342;34;20541;-62
2021/10/11 02:40:05;;;;;;;10.82;5.40;;;;;;;;;;4205287;34;20112;-69
2021/10/11 02:42:31;;;;;;;9.23;5.28;;;;;;;;;;4205261;34;20127;-61
2021/10/11 02:44:57;;;;;;;7.90;4.90;;;;;;;;;;4205288;34;20808;-62
2021/10/11 02:47:22;;;;;;;11.77;6.25;;;;;;;;;;4205118;34;20128;-62
2021/10/11 02:49:48;;;;;;;10.18;5.82;;;;;;;;;;4205301;34;20457;-61
2021/10/11 02:52:14;;;;;;;14.25;8.50;;;;;;;;;;4205272;34;20137;-61
2021/10/11 02:54:40;;;;;;;11.88;5.93;;;;;;;;;;4205262;34;20596;-62
2021/10/11 02:57:06;;;;;;;12.37;5.90;;;;;;;;;;4205370;34;21057;-62
2021/10/11 02:59:32;;;;;;;10.95;5.80;;;;;;;;;;4205413;34;20977;-62
2021/10/11 03:01:58;;;;;;;10.57;5.18;;;;;;;;;;4205028;34;20120;-66
2021/10/11 03:04:23;;;;;;;6.00;5.07;;;;;;;;;;4215270;34;20118;-61
2021/10/11 03:06:49;;;;;;;13.10;5.60;;;;;;;;;;4204715;34;20222;-61
2021/10/11 03:09:15;;;;;;;14.25;6.15;;;;;;;;;;4204682;34;20531;-62
2021/10/11 03:11:41;;;;;;;8.80;6.20;;;;;;;;;;4204962;34;20449;-61
2021/10/11 03:14:07;;;;;;;13.95;6.28;;;;;;;;;;4205018;34;20121;-61
2021/10/11 03:16:34;;;;;;;13.27;6.00;;;;;;;;;;4204998;34;20806;-61
2021/10/11 03:19:00;;;;;;;17.27;6.07;;;;;;;;;;4205248;34;20540;-63
2021/10/11 03:21:26;;;;;;;10.68;5.50;;;;;;;;;;4214758;34;20125;-62
2021/10/11 03:23:52;;;;;;;7.80;6.10;;;;;;;;;;4203330;34;20230;-64
2021/10/11 03:26:18;;;;;;;13.55;5.68;;;;;;;;;;4212879;34;20220;-62
2021/10/11 03:28:44;;;;;;;11.63;5.65;;;;;;;;;;4202575;34;20113;-62
2021/10/11 03:31:10;;;;;;;14.23;6.37;;;;;;;;;;4202601;34;20192;-61
2021/10/11 03:33:36;;;;;;;9.65;6.12;;;;;;;;;;4202889;34;20114;-61
2021/10/11 03:36:02;;;;;;;17.87;5.80;;;;;;;;;;4202530;34;20186;-61
2021/10/11 03:38:28;;;;;;;17.60;6.12;;;;;;;;;;4203620;34;20489;-62
2021/10/11 03:40:53;;;;;;;12.73;6.12;;;;;;;;;;4204728;34;20151;-62
2021/10/11 03:43:19;;;;;;;16.85;6.78;;;;;;;;;;4204871;34;20114;-63
2021/10/11 03:45:45;;;;;;;14.60;6.15;;;;;;;;;;4203631;34;20194;-62
2021/10/11 03:48:11;;;;;;;12.85;6.45;;;;;;;;;;4204698;34;20126;-62
2021/10/11 03:50:37;;;;;;;12.27;6.30;;;;;;;;;;4204649;34;20102;-62
2021/10/11 03:53:03;;;;;;;15.63;6.75;;;;;;;;;;4204480;34;20286;-62
2021/10/11 03:55:28;;;;;;;15.68;5.95;;;;;;;;;;4204028;34;20549;-62
2021/10/11 03:57:54;;;;;;;39.25;8.40;;;;;;;;;;4203275;34;20519;-62
2021/10/11 04:00:20;;;;;;;37.15;8.18;;;;;;;;;;4204689;34;20129;-62
2021/10/11 04:02:46;;;;;;;17.00;6.82;;;;;;;;;;4204741;34;20120;-62
2021/10/11 04:05:12;;;;;;;14.32;6.72;;;;;;;;;;4204740;34;20105;-62
2021/10/11 04:07:41;;;;;;;8.98;5.25;;;;;;;;;;4204476;34;20566;-62
2021/10/11 04:10:08;;;;;;;21.00;13.50;;;;;;;;;;4204546;34;20131;-62
2021/10/11 04:12:36;;;;;;;11.63;5.50;;;;;;;;;;4214612;34;20546;-62
2021/10/11 04:15:06;;;;;;;10.10;5.32;;;;;;;;;;4204397;34;20209;-62
2021/10/11 04:17:37;;;;;;;14.27;7.18;;;;;;;;;;4204441;34;20109;-62
2021/10/11 04:20:06;;;;;;;7.47;5.07;;;;;;;;;;4204380;34;20108;-61
2021/10/11 04:22:33;;;;;;;13.35;5.57;;;;;;;;;;4214464;34;20129;-61
2021/10/11 04:24:59;;;;;;;12.55;5.43;;;;;;;;;;4214938;34;20422;-62
2021/10/11 04:27:25;;;;;;;9.63;6.12;;;;;;;;;;4204255;34;20086;-62
2021/10/11 04:29:50;;;;;;;11.20;5.82;;;;;;;;;;4204558;34;20673;-61
2021/10/11 04:32:16;;;;;;;17.77;6.65;;;;;;;;;;4204528;34;20302;-62
2021/10/11 04:34:42;;;;;;;21.37;7.80;;;;;;;;;;4204176;34;20137;-62
2021/10/11 04:37:08;;;;;;;11.38;5.65;;;;;;;;;;4204365;34;20117;-62
2021/10/11 04:39:34;;;;;;;14.63;5.40;;;;;;;;;;4204033;34;20520;-62
2021/10/11 04:42:00;;;;;;;18.30;5.93;;;;;;;;;;4204054;34;20133;-62
2021/10/11 04:44:26;;;;;;;12.40;5.75;;;;;;;;;;4204086;34;20122;-62
2021/10/11 04:46:52;;;;;;;11.82;5.80;;;;;;;;;;4203997;34;20088;-62
2021/10/11 04:49:18;;;;;;;12.82;5.82;;;;;;;;;;4203995;34;20125;-62
2021/10/11 04:51:44;;;;;;;20.85;6.93;;;;;;;;;;4204094;34;20762;-61
2021/10/11 04:54:09;;;;;;;16.85;5.82;;;;;;;;;;4204211;34;20122;-62
2021/10/11 04:56:35;;;;;;;9.95;5.37;;;;;;;;;;4204712;34;20106;-62
2021/10/11 04:59:01;;;;;;;10.20;5.45;;;;;;;;;;4206291;34;20145;-62
2021/10/11 05:01:27;;;;;;;7.80;5.00;;;;;;;;;;4206232;34;20086;-61
2021/10/11 05:03:53;;;;;;;9.18;4.87;;;;;;;;;;4206037;34;20109;-62
2021/10/11 05:06:19;;;;;;;11.93;5.65;;;;;;;;;;4206028;34;20187;-61
2021/10/11 05:08:44;;;;;;;15.85;5.37;;;;;;;;;;4206227;34;20118;-62
2021/10/11 05:11:11;;;;;;;12.50;5.28;;;;;;;;;;4205932;34;20460;-61
2021/10/11 05:13:36;;;;;;;106.60;9.90;;;;;;;;;;4216236;34;20177;-62
2021/10/11 05:16:03;;;;;;;9.88;5.43;;;;;;;;;;4205930;34;20192;-61
2021/10/11 05:18:29;;;;;;;8.48;5.85;;;;;;;;;;4206114;34;20097;-61
2021/10/11 05:20:57;;;;;;;8.13;4.80;;;;;;;;;;4205953;34;20116;-61
2021/10/11 05:23:23;;;;;;;17.27;5.35;;;;;;;;;;4206018;34;20126;-61
2021/10/11 05:25:49;;;;;;;13.30;5.68;;;;;;;;;;4205904;34;20113;-62
2021/10/11 05:28:15;;;;;;;8.43;4.37;;;;;;;;;;4206117;34;20105;-61
2021/10/11 05:30:41;;;;;;;12.00;5.37;;;;;;;;;;4206025;34;20121;-61
2021/10/11 05:33:09;;;;;;;14.38;5.32;;;;;;;;;;4205890;34;20241;-61
2021/10/11 05:35:38;;;;;;;13.68;6.05;;;;;;;;;;4205765;34;20506;-61
2021/10/11 05:38:05;;;;;;;11.65;6.15;;;;;;;;;;4205904;34;20121;-61
2021/10/11 05:40:31;;;;;;;9.60;5.07;;;;;;;;;;4215725;34;20216;-61
2021/10/11 05:42:58;;;;;;;13.35;4.82;;;;;;;;;;4205688;34;20536;-62
2021/10/11 05:45:24;;;;;;;11.12;5.10;;;;;;;;;;4205771;34;20137;-61
2021/10/11 05:47:50;;;;;;;9.75;5.65;;;;;;;;;;4205715;34;20569;-60
2021/10/11 05:50:16;;;;;;;9.00;5.22;;;;;;;;;;4205668;34;20110;-61
2021/10/11 05:52:42;;;;;;;10.27;5.15;;;;;;;;;;4205447;34;20541;-61
2021/10/11 05:55:08;;;;;;;9.95;6.12;;;;;;;;;;4205479;34;20468;-60
2021/10/11 05:57:35;;;;;;;19.52;8.40;;;;;;;;;;4205424;34;20153;-60
2021/10/11 06:00:02;;;;;;;16.85;5.75;;;;;;;;;;4205530;34;20502;-60
2021/10/11 06:02:28;;;;;;;13.05;5.62;;;;;;;;;;4205624;34;20473;-61
2021/10/11 06:04:54;;;;;;;11.98;5.25;;;;;;;;;;4205474;34;20133;-63
2021/10/11 06:07:20;;;;;;;10.50;5.75;;;;;;;;;;4205188;34;20545;-62
2021/10/11 06:09:46;;;;;;;17.35;5.72;;;;;;;;;;4205007;34;20505;-62
2021/10/11 06:12:12;;;;;;;9.95;4.93;;;;;;;;;;4205524;34;20141;-61
2021/10/11 06:14:38;;;;;;;13.18;5.53;;;;;;;;;;4216002;34;20117;-62
2021/10/11 06:17:04;;;;;;;15.32;5.10;;;;;;;;;;4205607;34;20145;-62
2021/10/11 06:19:30;;;;;;;13.07;5.35;;;;;;;;;;4205127;34;20125;-63
2021/10/11 06:21:55;;;;;;;17.75;6.45;;;;;;;;;;4205139;34;20125;-62
2021/10/11 06:24:21;;;;;;;10.60;5.07;;;;;;;;;;4205171;34;20193;-62
2021/10/11 06:26:49;;;;;;;8.82;4.95;;;;;;;;;;4215594;34;20173;-62
2021/10/11 06:29:15;;;;;;;41.42;8.80;;;;;;;;;;4205348;34;20194;-61
2021/10/11 06:31:40;;;;;;;6.22;4.90;;;;;;;;;;4205313;34;20519;-61
2021/10/11 06:34:06;;;;;;;12.45;5.15;;;;;;;;;;4205603;34;20132;-62
2021/10/11 06:36:35;;;;;;;9.68;4.70;;;;;;;;;;4205402;34;20129;-62
2021/10/11 06:39:02;;;;;;;11.30;5.47;;;;;;;;;;4205402;34;20141;-63
2021/10/11 06:41:29;;;;;;;11.50;5.30;;;;;;;;;;4215152;34;20106;-63
2021/10/11 06:43:54;;;;;;;9.90;5.25;;;;;;;;;;4205395;34;20082;-62
2021/10/11 06:46:20;;;;;;;12.65;5.32;;;;;;;;;;4205139;34;20102;-61
2021/10/11 06:48:46;;;;;;;8.95;5.12;;;;;;;;;;4215304;34;20106;-62
2021/10/11 06:51:12;;;;;;;8.90;5.75;;;;;;;;;;4205135;34;20165;-65
2021/10/11 06:53:38;;;;;;;12.73;5.18;;;;;;;;;;4204936;34;20129;-63
2021/10/11 06:56:04;;;;;;;10.10;5.03;;;;;;;;;;4205325;34;20136;-62
2021/10/11 06:58:30;;;;;;;8.95;5.65;;;;;;;;;;4204861;34;20212;-62
2021/10/11 07:00:56;;;;;;;15.43;5.28;;;;;;;;;;4204970;34;20116;-62
2021/10/11 07:03:25;;;;;;;9.30;5.60;;;;;;;;;;4204889;34;20148;-62
2021/10/11 07:05:52;;;;;;;15.32;5.45;;;;;;;;;;4205211;34;20097;-62
2021/10/11 07:08:18;;;;;;;17.40;5.60;;;;;;;;;;4204870;34;20114;-62
2021/10/11 07:10:44;;;;;;;5.43;3.95;;;;;;;;;;4204995;34;20103;-63
2021/10/11 07:13:09;;;;;;;6.78;3.97;;;;;;;;;;4205125;34;20116;-62
2021/10/11 07:15:35;;;;;;;9.48;3.78;;;;;;;;;;4205129;34;20144;-62
2021/10/11 07:18:01;;;;;;;11.15;5.60;;;;;;;;;;4204905;34;20177;-63
2021/10/11 07:20:27;;;;;;;7.78;3.95;;;;;;;;;;4204793;34;20224;-62
2021/10/11 07:22:53;;;;;;;10.77;4.57;;;;;;;;;;4204877;34;20156;-61
2021/10/11 07:25:19;;;;;;;9.40;4.37;;;;;;;;;;4204802;34;20159;-61
2021/10/11 07:27:45;;;;;;;12.15;5.40;;;;;;;;;;4204780;34;20114;-62
2021/10/11 07:30:11;;;;;;;14.48;5.25;;;;;;;;;;4204851;34;20202;-63
2021/10/11 07:32:37;;;;;;;13.52;6.47;;;;;;;;;;4205053;34;20172;-63
2021/10/11 07:35:03;;;;;;;13.05;5.37;;;;;;;;;;4204970;34;20098;-62
2021/10/11 07:37:29;;;;;;;13.88;6.00;;;;;;;;;;4204744;34;20483;-62
2021/10/11 07:39:55;;;;;;;9.02;5.87;;;;;;;;;;4204734;34;20098;-63
2021/10/11 07:42:21;;;;;;;15.52;6.07;;;;;;;;;;4204604;34;20125;-63
2021/10/11 07:44:47;;;;;;;14.48;6.22;;;;;;;;;;4204941;34;20209;-64
2021/10/11 07:47:13;;;;;;;16.83;6.55;;;;;;;;;;4214813;34;20137;-64
2021/10/11 07:49:39;;;;;;;13.02;5.30;;;;;;;;;;4204627;34;20117;-64
2021/10/11 07:52:04;;;;;;;26.50;8.50;;;;;;;;;;4204666;34;20196;-64
2021/10/11 07:54:30;;;;;;;15.25;8.20;;;;;;;;;;4204547;34;20218;-64
2021/10/11 07:56:57;;;;;;;13.68;7.40;;;;;;;;;;4204487;34;20213;-64
2021/10/11 07:59:23;;;;;;;12.80;5.50;;;;;;;;;;4204408;34;20102;-64
2021/10/11 08:01:50;;;;;;;6.25;3.70;;;;;;;;;;4204361;34;20175;-63
2021/10/11 08:04:15;;;;;;;3.75;2.35;;;;;;;;;;4204431;34;20497;-64
2021/10/11 08:06:41;;;;;;;2.85;1.70;;;;;;;;;;4214610;34;20093;-64
2021/10/11 08:09:09;;;;;;;2.83;1.80;;;;;;;;;;4204615;34;20113;-72
2021/10/11 08:11:35;;;;;;;4.32;1.98;;;;;;;;;;4214354;34;20472;-62
2021/10/11 08:14:02;;;;;;;4.62;2.28;;;;;;;;;;4204266;34;20126;-62
2021/10/11 08:16:28;;;;;;;5.20;2.28;;;;;;;;;;4204502;34;20108;-62
2021/10/11 08:18:54;;;;;;;4.10;2.20;;;;;;;;;;4204319;34;20110;-62
2021/10/11 08:21:20;;;;;;;3.55;2.25;;;;;;;;;;4204131;34;20086;-63
2021/10/11 08:23:46;;;;;;;3.55;2.60;;;;;;;;;;4204068;34;20113;-62
2021/10/11 08:26:12;;;;;;;7.12;2.40;;;;;;;;;;4204264;34;20124;-63
2021/10/11 08:28:38;;;;;;;5.55;2.37;;;;;;;;;;4204368;34;20555;-61
2021/10/11 08:31:04;;;;;;;4.80;2.35;;;;;;;;;;4203851;34;20120;-62
2021/10/11 08:33:30;;;;;;;4.10;2.20;;;;;;;;;;4204261;34;20476;-62
2021/10/11 08:35:56;;;;;;;6.87;2.17;;;;;;;;;;4191191;34;20563;-63
2021/10/11 08:38:22;;;;;;;3.90;2.37;;;;;;;;;;4204005;34;20133;-65
2021/10/11 08:40:49;;;;;;;4.32;1.90;;;;;;;;;;4204072;34;20105;-65
2021/10/11 08:43:15;;;;;;;3.20;2.30;;;;;;;;;;4214278;34;20102;-65
2021/10/11 08:45:43;;;;;;;6.93;2.33;;;;;;;;;;4204055;34;20109;-63
2021/10/11 08:48:08;;;;;;;7.82;2.25;;;;;;;;;;4204026;34;20644;-63
2021/10/11 08:50:34;;;;;;;6.25;2.10;;;;;;;;;;4204001;34;20129;-63
2021/10/11 08:53:02;;;;;;;11.70;3.05;;;;;;;;;;4214346;34;20125;-63
2021/10/11 08:55:28;;;;;;;5.55;2.28;;;;;;;;;;4203948;34;20492;-61
2021/10/11 08:58:01;;;;;;;5.40;2.60;;;;;;;;;;4203912;34;20141;-62
2021/10/11 09:00:30;;;;;;;3.50;2.33;;;;;;;;;;4203826;34;20120;-61
2021/10/11 09:02:57;;;;;;;7.45;2.65;;;;;;;;;;4214026;34;20132;-61
2021/10/11 09:05:36;;;;;;;3.53;2.00;;;;;;;;;;4203907;34;20446;-62
2021/10/11 09:08:09;;;;;;;2.87;2.10;;;;;;;;;;4203904;34;20534;-62
2021/10/11 09:10:57;;;;;;;7.95;2.42;;;;;;;;;;4203765;34;20110;-62
2021/10/11 09:13:31;;;;;;;5.10;2.87;;;;;;;;;;4203567;34;20122;-63
2021/10/11 09:16:16;;;;;;;3.67;2.65;;;;;;;;;;4203958;34;20108;-63
2021/10/11 09:18:48;;;;;;;5.80;2.70;;;;;;;;;;4203949;34;20194;-62
2021/10/11 09:21:14;;;;;;;5.18;2.97;;;;;;;;;;4203695;34;20121;-63
2021/10/11 09:23:39;;;;;;;5.97;2.95;;;;;;;;;;4203837;34;20121;-62
2021/10/11 09:26:16;;;;;;;3.53;2.78;;;;;;;;;;4203651;34;20125;-62
2021/10/11 09:28:51;;;;;;;4.37;3.00;;;;;;;;;;4203685;34;20137;-62
2021/10/11 09:31:17;;;;;;;5.97;2.97;;;;;;;;;;4203474;34;20102;-62
2021/10/11 09:33:43;;;;;;;6.68;3.05;;;;;;;;;;4203645;34;20139;-62
2021/10/11 09:36:09;;;;;;;8.07;3.30;;;;;;;;;;4203772;34;20501;-63
2021/10/11 09:38:35;;;;;;;3.83;3.03;;;;;;;;;;4203432;34;20120;-63
2021/10/11 09:41:02;;;;;;;6.35;2.95;;;;;;;;;;4203365;34;20106;-63
2021/10/11 09:43:29;;;;;;;4.78;3.12;;;;;;;;;;4205137;34;20102;-62
2021/10/11 09:45:55;;;;;;;8.80;3.10;;;;;;;;;;4205675;34;20632;-62
2021/10/11 09:48:22;;;;;;;6.35;3.30;;;;;;;;;;4205541;34;20129;-63
2021/10/11 09:50:48;;;;;;;5.47;3.20;;;;;;;;;;4205577;34;20521;-63
2021/10/11 09:53:16;;;;;;;5.90;3.20;;;;;;;;;;4205494;34;20122;-62
2021/10/11 09:55:44;;;;;;;5.72;3.00;;;;;;;;;;4205644;34;20128;-61
2021/10/11 09:58:10;;;;;;;5.95;2.70;;;;;;;;;;4205587;34;20460;-62
2021/10/11 10:00:41;;;;;;;5.28;3.50;;;;;;;;;;4205720;34;20128;-62
2021/10/11 10:03:09;;;;;;;7.07;3.47;;;;;;;;;;4205333;34;20102;-62
2021/10/11 10:05:39;;;;;;;3.97;2.72;;;;;;;;;;4205712;34;20121;-62
2021/10/11 10:08:10;;;;;;;3.60;2.67;;;;;;;;;;4203983;34;20105;-61
2021/10/11 10:10:36;;;;;;;5.40;2.28;;;;;;;;;;4215510;34;20145;-62
2021/10/11 10:13:16;;;;;;;5.40;2.28;;;;;;;;;;4205393;34;20109;-62
2021/10/11 10:15:42;;;;;;;4.40;2.92;;;;;;;;;;4215404;34;20106;-62
2021/10/11 10:18:10;;;;;;;7.00;3.92;;;;;;;;;;4205415;34;20101;-62
2021/10/11 10:20:48;;;;;;;5.93;2.95;;;;;;;;;;4215824;34;20149;-62
2021/10/11 10:23:27;;;;;;;8.48;2.87;;;;;;;;;;4211184;34;20110;-61
2021/10/11 10:25:55;;;;;;;2.55;2.08;;;;;;;;;;4205022;34;20540;-61
2021/10/11 10:28:23;;;;;;;3.20;2.08;;;;;;;;;;4194566;34;20198;-60
2021/10/11 10:30:59;;;;;;;2.60;2.05;;;;;;;;;;4192264;34;20493;-61
2021/10/11 10:33:52;;;;;;;6.43;2.53;;;;;;;;;;4191887;34;20126;-60
2021/10/11 10:36:26;;;;;;;6.00;2.15;;;;;;;;;;4179545;34;20192;-61
2021/10/11 10:39:03;;;;;;;4.75;2.28;;;;;;;;;;4192785;34;20137;-61
2021/10/11 10:41:29;;;;;;;4.18;2.10;;;;;;;;;;4205222;34;20200;-61
2021/10/11 10:43:56;;;;;;;6.35;2.20;;;;;;;;;;4192311;34;20128;-61
2021/10/11 10:46:22;;;;;;;3.42;1.83;;;;;;;;;;4168884;34;20106;-63
2021/10/11 10:48:52;;;;;;;3.80;2.47;;;;;;;;;;4205376;34;20130;-62
2021/10/11 10:51:19;;;;;;;6.37;2.40;;;;;;;;;;4192280;34;20101;-62
2021/10/11 10:53:55;;;;;;;5.28;1.80;;;;;;;;;;4191784;34;20082;-63
2021/10/11 10:56:21;;;;;;;3.92;1.70;;;;;;;;;;4204882;34;20090;-62
2021/10/11 10:58:49;;;;;;;7.00;2.70;;;;;;;;;;4205183;34;20094;-62
2021/10/11 11:01:24;;;;;;;2.65;2.10;;;;;;;;;;4204941;34;20117;-62
2021/10/11 11:03:51;;;;;;;4.25;2.22;;;;;;;;;;4205076;34;20538;-62
2021/10/11 11:06:35;;;;;;;6.53;2.50;;;;;;;;;;4204961;34;20474;-62
2021/10/11 11:09:00;;;;;;;5.28;2.47;;;;;;;;;;4205159;34;20116;-63
2021/10/11 11:11:27;;;;;;;4.78;2.33;;;;;;;;;;4204499;34;20113;-63
2021/10/11 11:13:57;;;;;;;3.83;2.60;;;;;;;;;;4204685;34;20082;-62
2021/10/11 11:16:28;;;;;;;7.25;2.75;;;;;;;;;;4204912;34;20498;-63
2021/10/11 11:18:54;;;;;;;4.47;2.40;;;;;;;;;;4204707;34;20125;-63
2021/10/11 11:21:20;;;;;;;5.80;2.87;;;;;;;;;;4204646;34;20422;-62
2021/10/11 11:23:46;;;;;;;6.82;2.53;;;;;;;;;;4214726;34;20102;-63
2021/10/11 11:26:12;;;;;;;6.65;2.30;;;;;;;;;;4204738;34;20096;-62
2021/10/11 11:28:37;;;;;;;3.20;2.58;;;;;;;;;;4204828;34;20233;-62
2021/10/11 11:31:05;;;;;;;8.10;3.05;;;;;;;;;;4204753;34;20129;-62
2021/10/11 11:33:32;;;;;;;7.68;2.60;;;;;;;;;;4204809;34;20646;-62
2021/10/11 11:35:58;;;;;;;4.00;1.77;;;;;;;;;;4204723;34;20169;-63
2021/10/11 11:38:28;;;;;;;8.90;3.33;;;;;;;;;;4204805;34;20106;-62
2021/10/11 11:40:58;;;;;;;5.18;2.50;;;;;;;;;;4204571;34;20122;-62
2021/10/11 11:43:26;;;;;;;7.65;2.50;;;;;;;;;;4204482;34;20465;-61
2021/10/11 11:45:54;;;;;;;4.28;2.60;;;;;;;;;;4204668;34;20117;-62
2021/10/11 11:48:24;;;;;;;9.65;3.20;;;;;;;;;;4204976;34;20116;-62
2021/10/11 11:51:01;;;;;;;3.65;2.53;;;;;;;;;;4204883;34;20120;-62
2021/10/11 11:53:29;;;;;;;5.93;2.20;;;;;;;;;;4204891;34;20109;-61
2021/10/11 11:55:56;;;;;;;4.03;2.50;;;;;;;;;;4204599;34;20124;-61
2021/10/11 11:58:35;;;;;;;4.43;2.00;;;;;;;;;;4204387;34;20122;-61
2021/10/11 12:01:05;;;;;;;5.00;2.00;;;;;;;;;;4204696;34;20186;-61
2021/10/11 12:03:32;;;;;;;4.62;2.00;;;;;;;;;;4214549;34;20102;-62
2021/10/11 12:05:59;;;;;;;3.08;2.08;;;;;;;;;;4214023;34;20125;-62
2021/10/11 12:08:24;;;;;;;6.72;2.15;;;;;;;;;;4203085;34;20114;-62
2021/10/11 12:11:01;;;;;;;2.78;2.00;;;;;;;;;;4204413;34;20229;-62
2021/10/11 12:13:34;;;;;;;3.53;1.98;;;;;;;;;;4204281;34;20216;-63
2021/10/11 12:16:21;;;;;;;6.45;2.17;;;;;;;;;;4204496;34;20090;-63
2021/10/11 12:18:48;;;;;;;8.10;2.30;;;;;;;;;;4204149;34;20113;-62
2021/10/11 12:21:26;;;;;;;9.82;2.70;;;;;;;;;;4214595;34;20097;-62
2021/10/11 12:23:53;;;;;;;2.40;2.10;;;;;;;;;;4204686;34;20141;-62
2021/10/11 12:26:20;;;;;;;7.60;2.95;;;;;;;;;;4204318;34;20126;-63
2021/10/11 12:28:57;;;;;;;4.72;2.42;;;;;;;;;;4204061;34;20128;-63
2021/10/11 12:31:27;;;;;;;4.18;2.67;;;;;;;;;;4204260;34;20098;-62
2021/10/11 12:34:02;;;;;;;3.75;2.40;;;;;;;;;;4204392;34;20102;-64
2021/10/11 12:36:28;;;;;;;6.85;2.60;;;;;;;;;;4204217;34;20126;-61
2021/10/11 12:38:54;;;;;;;3.03;2.05;;;;;;;;;;4214309;34;20220;-62
2021/10/11 12:41:20;;;;;;;3.37;1.83;;;;;;;;;;4203972;34;20125;-67
2021/10/11 12:43:54;;;;;;;4.10;1.92;;;;;;;;;;4214193;34;20175;-62
2021/10/11 12:46:20;;;;;;;7.60;2.50;;;;;;;;;;4204411;34;20127;-62
2021/10/11 12:48:58;;;;;;;6.37;2.17;;;;;;;;;;4204329;34;20510;-62
2021/10/11 12:51:32;;;;;;;8.40;2.35;;;;;;;;;;4203925;34;20209;-62
2021/10/11 12:54:01;;;;;;;3.60;1.73;;;;;;;;;;4204197;34;20126;-62
2021/10/11 12:56:27;;;;;;;10.02;4.07;;;;;;;;;;4203913;34;20116;-62
2021/10/11 12:59:03;;;;;;;5.43;2.35;;;;;;;;;;4204285;34;20114;-62
2021/10/11 13:01:29;;;;;;;6.62;2.20;;;;;;;;;;4204062;34;20109;-62
2021/10/11 13:03:55;;;;;;;6.62;2.17;;;;;;;;;;4203869;34;20110;-62
2021/10/11 13:06:27;;;;;;;2.53;2.00;;;;;;;;;;4203856;34;20461;-62
2021/10/11 13:08:53;;;;;;;5.82;1.90;;;;;;;;;;4213946;34;20200;-62
2021/10/11 13:11:19;;;;;;;3.45;2.00;;;;;;;;;;4203796;34;20125;-62
2021/10/11 13:13:45;;;;;;;3.20;2.00;;;;;;;;;;4203844;34;20626;-62
2021/10/11 13:16:11;;;;;;;3.67;2.03;;;;;;;;;;4203758;34;20530;-62
2021/10/11 13:18:39;;;;;;;4.18;1.90;;;;;;;;;;4205425;34;20120;-62
2021/10/11 13:21:06;;;;;;;4.47;2.00;;;;;;;;;;4205573;34;20462;-62
2021/10/11 13:23:32;;;;;;;6.10;2.08;;;;;;;;;;4205398;34;20097;-61
2021/10/11 13:25:58;;;;;;;8.90;1.98;;;;;;;;;;4212565;34;20193;-62
2021/10/11 13:28:24;;;;;;;3.80;2.05;;;;;;;;;;4211223;34;20687;-62
2021/10/11 13:39:33;;;;;;;6.12;2.00;;;;;;;;;;4205667;34;20204;-62
2021/10/11 14:28:21;;;;;;;10.35;3.53;;;;;;;;;;4205043;34;20110;-61
2021/10/11 16:06:02;;;;;;;14.30;6.75;;;;;;;;;;4204315;34;20118;-62
2021/10/11 16:08:28;;;;;;;10.27;5.15;;;;;;;;;;4204514;34;20538;-65
2021/10/11 16:10:54;;;;;;;13.70;5.22;;;;;;;;;;4204467;34;20129;-63
2021/10/11 16:13:21;;;;;;;16.12;4.93;;;;;;;;;;4204612;34;20125;-65
2021/10/11 16:15:47;;;;;;;14.43;5.03;;;;;;;;;;4203396;34;20121;-63
2021/10/11 16:18:12;;;;;;;11.25;3.80;;;;;;;;;;4203487;34;20509;-66
2021/10/11 16:20:38;;;;;;;7.70;3.90;;;;;;;;;;4203215;34;20101;-63
2021/10/11 16:23:05;;;;;;;8.43;4.03;;;;;;;;;;4203436;34;20125;-64
2021/10/11 16:25:31;;;;;;;8.45;3.05;;;;;;;;;;4203199;34;20145;-64
2021/10/11 16:27:57;;;;;;;4.12;2.90;;;;;;;;;;4203028;34;20595;-63
2021/10/11 16:30:23;;;;;;;8.57;3.30;;;;;;;;;;4204181;34;20181;-65
2021/10/11 16:32:49;;;;;;;9.80;3.22;;;;;;;;;;4204196;34;20121;-65
2021/10/11 16:35:15;;;;;;;7.70;2.90;;;;;;;;;;4204257;34;20090;-63
2021/10/11 16:37:41;;;;;;;6.03;3.10;;;;;;;;;;4204216;34;20551;-63
2021/10/11 16:40:07;;;;;;;6.37;3.75;;;;;;;;;;4203379;34;20205;-62
2021/10/11 16:42:33;;;;;;;8.40;3.80;;;;;;;;;;4202990;34;20118;-63
2021/10/11 16:44:59;;;;;;;11.90;4.00;;;;;;;;;;4202979;34;20213;-61
2021/10/11 16:47:25;;;;;;;8.70;3.97;;;;;;;;;;4202966;34;20224;-63
2021/10/11 16:49:51;;;;;;;12.13;4.32;;;;;;;;;;4203053;34;20545;-63
2021/10/11 16:52:17;;;;;;;7.20;3.28;;;;;;;;;;4203143;34;20125;-64
2021/10/11 16:54:43;;;;;;;10.63;3.97;;;;;;;;;;4205049;34;20578;-64
2021/10/11 16:57:12;;;;;;;8.65;3.58;;;;;;;;;;4205042;34;20134;-64
2021/10/11 16:59:38;;;;;;;4.93;2.95;;;;;;;;;;4203387;34;20189;-63
2021/10/11 17:02:04;;;;;;;12.93;4.35;;;;;;;;;;4204836;34;20136;-62
2021/10/11 17:04:30;;;;;;;4.60;3.67;;;;;;;;;;4192112;34;20529;-64
2021/10/11 17:06:56;;;;;;;10.93;3.70;;;;;;;;;;4206015;34;20143;-65
2021/10/11 17:09:23;;;;;;;13.35;4.68;;;;;;;;;;4205986;34;20110;-65
2021/10/11 17:11:49;;;;;;;14.05;5.53;;;;;;;;;;4205929;34;20141;-63
2021/10/11 17:14:15;;;;;;;9.48;5.18;;;;;;;;;;4205858;34;20121;-65
2021/10/11 17:16:41;;;;;;;15.40;5.00;;;;;;;;;;4194347;34;20269;-64
2021/10/11 17:19:08;;;;;;;20.95;5.78;;;;;;;;;;4205400;34;20109;-65
2021/10/11 17:21:35;;;;;;;14.57;6.05;;;;;;;;;;4204183;34;20113;-66
2021/10/11 17:24:01;;;;;;;9.77;5.90;;;;;;;;;;4200616;34;20140;-65
2021/10/11 17:26:30;;;;;;;12.85;4.60;;;;;;;;;;4219523;34;20125;-65